createdAt,value
2023-04-03T00:01:42.198Z,0.70
2023-04-03T00:06:45.079Z,0.85
2023-04-03T00:11:49.279Z,0.88
2023-04-03T00:16:52.109Z,0.95
2023-04-03T00:21:55.327Z,0.82
2023-04-03T00:26:59.472Z,0.68
2023-04-03T00:32:02.294Z,0.60
2023-04-03T00:37:05.220Z,0.80
2023-04-03T00:42:09.444Z,0.60
2023-04-03T00:47:15.510Z,1.17
2023-04-03T00:52:21.778Z,0.73
2023-04-03T00:57:26.425Z,0.60
2023-04-03T01:02:29.367Z,1.20
2023-04-03T01:07:34.423Z,0.75
2023-04-03T01:12:40.344Z,0.73
2023-04-03T01:17:50.321Z,0.80
2023-04-03T01:23:01.005Z,0.60
2023-04-03T01:28:05.533Z,0.85
2023-04-03T01:33:09.717Z,1.23
2023-04-03T01:38:12.544Z,0.80
2023-04-03T01:43:15.602Z,0.77
2023-04-03T01:48:19.830Z,1.08
2023-04-03T01:53:22.712Z,0.90
2023-04-03T01:58:25.591Z,0.80
2023-04-03T02:03:29.749Z,0.95
2023-04-03T02:08:32.590Z,1.17
2023-04-03T02:13:35.429Z,0.98
2023-04-03T02:18:40.104Z,0.75
2023-04-03T02:23:43.076Z,1.25
2023-04-03T02:28:45.958Z,0.93
2023-04-03T02:33:50.106Z,1.10
2023-04-03T02:38:52.936Z,1.40
2023-04-03T02:43:55.930Z,1.13
2023-04-03T02:49:00.685Z,2.60
2023-04-03T02:54:03.562Z,1.20
2023-04-03T02:59:07.131Z,1.13
2023-04-03T03:04:11.287Z,1.10
2023-04-03T03:09:14.781Z,1.40
2023-04-03T03:14:17.609Z,1.55
2023-04-03T03:19:21.774Z,1.30
2023-04-03T03:24:24.808Z,0.95
2023-04-03T03:29:27.665Z,1.23
2023-04-03T03:34:31.913Z,1.08
2023-04-03T03:39:34.743Z,1.48
2023-04-03T03:44:37.621Z,1.00
2023-04-03T03:49:41.842Z,1.40
2023-04-03T03:54:44.648Z,1.33
2023-04-03T03:59:48.487Z,1.05
2023-04-03T04:04:52.787Z,2.15
2023-04-03T04:09:55.892Z,1.67
2023-04-03T04:14:58.730Z,1.48
2023-04-03T04:20:03.704Z,1.25
2023-04-03T04:25:07.080Z,1.50
2023-04-03T04:30:11.973Z,1.10
2023-04-03T04:35:17.089Z,1.35
2023-04-03T04:40:20.390Z,1.30
2023-04-03T04:45:23.235Z,1.30
2023-04-03T04:50:27.548Z,1.30
2023-04-03T04:55:30.367Z,1.23
2023-04-03T05:00:33.227Z,1.15
2023-04-03T05:05:37.828Z,2.15
2023-04-03T05:10:41.710Z,1.95
2023-04-03T05:15:44.599Z,1.17
2023-04-03T05:20:51.294Z,1.48
2023-04-03T05:25:55.120Z,2.20
2023-04-03T05:30:59.203Z,1.30
2023-04-03T05:36:06.596Z,1.58
2023-04-03T05:41:09.792Z,1.27
2023-04-03T05:46:13.943Z,3.17
2023-04-03T05:51:20.088Z,2.08
2023-04-03T05:56:23.030Z,1.60
2023-04-03T06:01:25.830Z,2.30
2023-04-03T06:06:46.138Z,3.55
2023-04-03T06:11:48.970Z,3.00
2023-04-03T06:16:52.041Z,1.95
2023-04-03T06:21:56.469Z,2.38
2023-04-03T06:26:59.641Z,2.67
2023-04-03T06:32:02.514Z,1.75
2023-04-03T06:37:07.691Z,1.98
2023-04-03T06:42:10.827Z,1.70
2023-04-03T06:47:14.471Z,1.90
2023-04-03T06:52:18.618Z,12.00
2023-04-03T06:57:21.584Z,6.57
2023-04-03T07:02:24.496Z,4.70
2023-04-03T07:07:28.782Z,5.55
2023-04-03T07:12:31.851Z,7.72
2023-04-03T07:17:34.750Z,10.13
2023-04-03T07:22:39.071Z,9.13
2023-04-03T07:27:41.885Z,6.05
2023-04-03T07:32:45.210Z,7.03
2023-04-03T07:37:49.440Z,6.22
2023-04-03T07:42:52.278Z,5.88
2023-04-03T07:47:55.210Z,6.95
2023-04-03T07:52:59.402Z,9.10
2023-04-03T07:58:02.251Z,6.97
2023-04-03T08:03:06.074Z,6.30
2023-04-03T08:08:11.797Z,4.55
2023-04-03T08:13:14.624Z,4.80
2023-04-03T08:18:18.006Z,4.10
2023-04-03T08:23:22.135Z,5.53
2023-04-03T08:28:24.983Z,6.50
2023-04-03T08:33:28.299Z,8.68
2023-04-03T08:38:32.498Z,3.97
2023-04-03T08:43:42.429Z,4.03
2023-04-03T08:48:45.869Z,4.88
2023-04-03T08:53:58.842Z,3.42
2023-04-03T08:59:06.121Z,3.13
2023-04-03T09:04:13.745Z,3.05
2023-04-03T09:09:27.924Z,3.25
2023-04-03T09:14:38.088Z,3.78
2023-04-03T09:19:47.721Z,5.13
2023-04-03T09:24:59.239Z,3.08
2023-04-03T09:30:02.180Z,2.78
2023-04-03T09:35:20.509Z,3.28
2023-04-03T09:40:36.702Z,3.28
2023-04-03T09:45:39.764Z,2.50
2023-04-03T09:51:00.481Z,4.00
2023-04-03T09:56:20.808Z,1.58
2023-04-03T10:01:28.412Z,5.65
2023-04-03T10:06:34.330Z,2.05
2023-04-03T10:11:38.552Z,2.70
2023-04-03T10:16:48.446Z,1.55
2023-04-03T10:21:59.506Z,1.70
2023-04-03T10:27:09.693Z,2.25
2023-04-03T10:32:27.075Z,2.33
2023-04-03T10:37:38.393Z,2.72
2023-04-03T10:42:48.578Z,1.85
2023-04-03T10:48:04.775Z,1.92
2023-04-03T10:53:15.747Z,1.45
2023-04-03T10:58:25.982Z,1.52
2023-04-03T11:03:33.293Z,3.17
2023-04-03T11:08:40.561Z,1.45
2023-04-03T11:13:50.462Z,1.85
2023-04-03T11:18:58.423Z,2.03
2023-04-03T11:24:01.776Z,2.35
2023-04-03T11:29:17.885Z,2.83
2023-04-03T11:34:37.225Z,2.22
2023-04-03T11:39:42.404Z,1.70
2023-04-03T11:44:46.690Z,1.70
2023-04-03T11:50:03.749Z,1.30
2023-04-03T11:55:44.194Z,2.95
2023-04-03T12:00:57.784Z,3.00
2023-04-03T12:06:39.244Z,1.70
2023-04-03T12:11:42.279Z,3.00
2023-04-03T12:16:48.838Z,1.98
2023-04-03T12:22:08.552Z,1.55
2023-04-03T12:27:33.774Z,1.30
2023-04-03T12:33:12.811Z,1.42
2023-04-03T12:38:42.574Z,1.23
2023-04-03T12:43:55.726Z,1.00
2023-04-03T12:49:00.676Z,1.67
2023-04-03T12:54:06.929Z,1.90
2023-04-03T12:59:18.723Z,1.52
2023-04-03T13:04:23.342Z,1.33
2023-04-03T13:09:28.948Z,2.08
2023-04-03T13:14:33.727Z,1.95
2023-04-03T13:19:38.351Z,1.23
2023-04-03T13:24:41.805Z,1.75
2023-04-03T13:29:45.020Z,14.18
2023-04-03T13:34:49.748Z,29.48
2023-04-03T13:40:02.245Z,19.95
2023-04-03T13:45:22.558Z,20.20
2023-04-03T13:50:30.008Z,14.32
2023-04-03T13:55:36.021Z,8.93
2023-04-03T14:00:41.610Z,9.02
2023-04-03T14:05:46.633Z,8.27
2023-04-03T14:10:50.777Z,12.35
2023-04-03T14:15:55.038Z,14.27
2023-04-03T14:21:00.667Z,21.60
2023-04-03T14:26:03.579Z,23.95
2023-04-03T14:31:06.578Z,14.07
2023-04-03T14:36:16.130Z,10.85
2023-04-03T14:41:22.376Z,9.48
2023-04-03T14:46:48.155Z,8.50
2023-04-03T14:51:57.700Z,9.88
2023-04-03T14:57:02.705Z,13.20
2023-04-03T15:02:26.754Z,6.97
2023-04-03T15:07:32.864Z,8.95
2023-04-03T15:12:35.692Z,9.23
2023-04-03T15:17:39.373Z,8.77
2023-04-03T15:22:43.692Z,6.82
2023-04-03T15:27:46.624Z,5.53
2023-04-03T15:32:49.945Z,8.00
2023-04-03T15:37:54.071Z,5.70
2023-04-03T15:42:56.877Z,15.30
2023-04-03T15:47:59.920Z,11.07
2023-04-03T15:53:04.512Z,9.15
2023-04-03T15:58:07.462Z,9.07
2023-04-03T16:03:13.442Z,7.60
2023-04-03T16:08:18.761Z,9.00
2023-04-03T16:13:21.742Z,7.13
2023-04-03T16:18:24.748Z,6.72
2023-04-03T16:23:28.949Z,6.57
2023-04-03T16:28:31.875Z,6.03
2023-04-03T16:33:34.777Z,5.70
2023-04-03T16:38:39.109Z,7.10
2023-04-03T16:48:45.855Z,9.73
2023-04-03T16:53:50.033Z,9.48
2023-04-03T16:58:52.874Z,7.38
2023-04-03T17:03:55.843Z,9.77
2023-04-03T17:09:00.069Z,8.98
2023-04-03T17:14:03.163Z,9.15
2023-04-03T17:19:06.900Z,6.68
2023-04-03T17:24:13.493Z,5.25
2023-04-03T17:29:16.502Z,6.15
2023-04-03T17:34:19.550Z,6.63
2023-04-03T17:39:23.726Z,7.25
2023-04-03T17:44:27.055Z,4.05
2023-04-03T17:49:29.932Z,4.90
2023-04-03T17:54:34.159Z,6.95
2023-04-03T17:59:36.991Z,2.92
2023-04-03T18:04:39.923Z,4.07
2023-04-03T18:09:44.421Z,3.72
2023-04-03T18:14:47.546Z,3.97
2023-04-03T18:19:51.609Z,4.60
2023-04-03T18:24:58.462Z,4.47
2023-04-03T18:30:08.035Z,3.42
2023-04-03T18:35:11.500Z,7.18
2023-04-03T18:40:16.114Z,4.00
2023-04-03T18:45:23.380Z,4.32
2023-04-03T18:50:26.585Z,4.70
2023-04-03T18:55:31.027Z,4.72
2023-04-03T19:00:34.439Z,4.05
2023-04-03T19:05:37.979Z,4.40
2023-04-03T19:10:42.417Z,3.67
2023-04-03T19:15:45.455Z,3.80
2023-04-03T19:20:48.290Z,3.00
2023-04-03T19:26:00.868Z,2.47
2023-04-03T19:31:03.790Z,6.20
2023-04-03T19:36:07.229Z,3.58
2023-04-03T19:41:14.257Z,2.85
2023-04-03T19:46:18.704Z,2.40
2023-04-03T19:51:21.795Z,4.05
2023-04-03T19:56:27.058Z,2.00
2023-04-03T20:01:30.980Z,2.67
2023-04-03T20:06:33.963Z,5.10
2023-04-03T20:11:40.092Z,3.05
2023-04-03T20:16:43.051Z,2.05
2023-04-03T20:21:46.073Z,2.05
2023-04-03T20:26:50.295Z,2.17
2023-04-03T20:31:55.161Z,2.35
2023-04-03T20:36:58.475Z,2.40
2023-04-03T20:42:03.588Z,2.30
2023-04-03T20:47:06.722Z,1.40
2023-04-03T20:52:10.074Z,1.95
2023-04-03T20:57:14.580Z,2.53
2023-04-03T21:02:17.505Z,2.95
2023-04-03T21:07:58.570Z,1.77
2023-04-03T21:13:38.296Z,3.13
2023-04-03T21:18:57.891Z,1.63
2023-04-03T21:24:02.998Z,1.50
2023-04-03T21:29:07.627Z,2.17
2023-04-03T21:34:14.027Z,1.98
2023-04-03T21:39:17.017Z,2.30
2023-04-03T21:44:19.844Z,2.47
2023-04-03T21:49:25.066Z,2.45
2023-04-03T21:54:27.947Z,1.85
2023-04-03T21:59:31.433Z,3.85
2023-04-03T22:04:35.672Z,2.67
2023-04-03T22:09:38.466Z,2.38
2023-04-03T22:14:41.269Z,2.28
2023-04-03T22:19:45.882Z,1.70
2023-04-03T22:24:48.690Z,2.30
2023-04-03T22:29:51.538Z,2.17
2023-04-03T22:34:55.708Z,1.58
2023-04-03T22:39:58.588Z,2.15
2023-04-03T22:45:01.793Z,1.83
2023-04-03T22:50:06.805Z,1.52
2023-04-03T22:55:18.995Z,2.15
2023-04-03T23:00:22.919Z,1.80
2023-04-03T23:05:27.273Z,2.58
2023-04-03T23:10:30.061Z,2.28
2023-04-03T23:15:32.873Z,1.60
2023-04-03T23:20:37.138Z,1.50
2023-04-03T23:25:40.148Z,3.03
2023-04-03T23:30:43.126Z,1.00
2023-04-03T23:35:48.599Z,1.65
2023-04-03T23:40:51.586Z,2.05
2023-04-03T23:45:54.510Z,2.47
2023-04-03T23:50:58.672Z,2.05
2023-04-03T23:56:01.624Z,1.90
